sensor_id;sensor_type;location;lat;lon;timestamp;P1;durP1;ratioP1;P2;durP2;ratioP2
61704;SDS011;47627;48.078;11.522;2024-01-15T00:01:16;10.15;;;6.78;;
61704;SDS011;47627;48.078;11.522;2024-01-15T00:03:42;12.98;;;7.10;;
61704;SDS011;47627;48.078;11.522;2024-01-15T00:06:07;13.77;;;7.20;;
61704;SDS011;47627;48.078;11.522;2024-01-15T00:08:32;11.35;;;7.50;;
61704;SDS011;47627;48.078;11.522;2024-01-15T00:10:58;11.05;;;7.07;;
61704;SDS011;47627;48.078;11.522;2024-01-15T00:13:23;12.00;;;7.47;;
61704;SDS011;47627;48.078;11.522;2024-01-15T00:15:49;13.18;;;8.25;;
61704;SDS011;47627;48.078;11.522;2024-01-15T00:18:14;11.18;;;7.38;;
61704;SDS011;47627;48.078;11.522;2024-01-15T00:20:39;10.88;;;6.90;;
61704;SDS011;47627;48.078;11.522;2024-01-15T00:23:04;16.65;;;8.18;;
61704;SDS011;47627;48.078;11.522;2024-01-15T00:25:29;12.55;;;8.63;;
61704;SDS011;47627;48.078;11.522;2024-01-15T00:27:55;14.48;;;8.18;;
61704;SDS011;47627;48.078;11.522;2024-01-15T00:30:20;14.38;;;8.27;;
61704;SDS011;47627;48.078;11.522;2024-01-15T00:32:45;14.60;;;8.45;;
61704;SDS011;47627;48.078;11.522;2024-01-15T00:35:10;13.63;;;8.55;;
61704;SDS011;47627;48.078;11.522;2024-01-15T00:37:36;14.30;;;8.45;;
61704;SDS011;47627;48.078;11.522;2024-01-15T00:40:01;13.20;;;8.93;;
61704;SDS011;47627;48.078;11.522;2024-01-15T00:42:26;14.93;;;9.27;;
61704;SDS011;47627;48.078;11.522;2024-01-15T00:44:51;16.48;;;9.30;;
61704;SDS011;47627;48.078;11.522;2024-01-15T00:47:18;16.55;;;9.40;;
61704;SDS011;47627;48.078;11.522;2024-01-15T00:49:43;16.98;;;9.55;;
61704;SDS011;47627;48.078;11.522;2024-01-15T00:52:08;14.48;;;9.02;;
61704;SDS011;47627;48.078;11.522;2024-01-15T00:54:33;15.68;;;9.88;;
61704;SDS011;47627;48.078;11.522;2024-01-15T00:56:59;16.10;;;9.68;;
61704;SDS011;47627;48.078;11.522;2024-01-15T00:59:24;16.70;;;10.27;;
61704;SDS011;47627;48.078;11.522;2024-01-15T01:01:49;19.60;;;10.85;;
61704;SDS011;47627;48.078;11.522;2024-01-15T01:04:14;18.58;;;10.63;;
61704;SDS011;47627;48.078;11.522;2024-01-15T01:06:40;19.73;;;10.65;;
61704;SDS011;47627;48.078;11.522;2024-01-15T01:09:05;19.83;;;10.65;;
61704;SDS011;47627;48.078;11.522;2024-01-15T01:11:30;20.77;;;11.52;;
61704;SDS011;47627;48.078;11.522;2024-01-15T01:13:56;34.33;;;17.27;;
61704;SDS011;47627;48.078;11.522;2024-01-15T01:16:21;43.92;;;20.70;;
61704;SDS011;47627;48.078;11.522;2024-01-15T01:18:47;54.53;;;21.15;;
61704;SDS011;47627;48.078;11.522;2024-01-15T01:21:13;59.35;;;22.98;;
61704;SDS011;47627;48.078;11.522;2024-01-15T01:23:38;92.07;;;32.75;;
61704;SDS011;47627;48.078;11.522;2024-01-15T01:26:03;75.30;;;28.20;;
61704;SDS011;47627;48.078;11.522;2024-01-15T01:28:28;50.05;;;20.90;;
61704;SDS011;47627;48.078;11.522;2024-01-15T01:30:53;40.85;;;19.15;;
61704;SDS011;47627;48.078;11.522;2024-01-15T01:33:19;30.38;;;16.50;;
61704;SDS011;47627;48.078;11.522;2024-01-15T01:35:44;28.55;;;15.95;;
61704;SDS011;47627;48.078;11.522;2024-01-15T01:38:10;25.50;;;14.02;;
61704;SDS011;47627;48.078;11.522;2024-01-15T01:40:35;26.20;;;15.35;;
61704;SDS011;47627;48.078;11.522;2024-01-15T01:43:02;26.92;;;14.88;;
61704;SDS011;47627;48.078;11.522;2024-01-15T01:45:27;23.15;;;13.55;;
61704;SDS011;47627;48.078;11.522;2024-01-15T01:47:52;25.55;;;14.50;;
61704;SDS011;47627;48.078;11.522;2024-01-15T01:50:18;27.10;;;15.25;;
61704;SDS011;47627;48.078;11.522;2024-01-15T01:52:43;28.58;;;15.85;;
61704;SDS011;47627;48.078;11.522;2024-01-15T01:55:09;36.92;;;19.83;;
61704;SDS011;47627;48.078;11.522;2024-01-15T01:57:34;55.45;;;26.52;;
61704;SDS011;47627;48.078;11.522;2024-01-15T02:00:00;64.68;;;30.60;;
61704;SDS011;47627;48.078;11.522;2024-01-15T02:02:26;47.78;;;24.80;;
61704;SDS011;47627;48.078;11.522;2024-01-15T02:04:51;31.25;;;17.92;;
61704;SDS011;47627;48.078;11.522;2024-01-15T02:07:16;31.98;;;16.67;;
61704;SDS011;47627;48.078;11.522;2024-01-15T02:09:43;27.15;;;15.05;;
61704;SDS011;47627;48.078;11.522;2024-01-15T02:12:09;28.67;;;16.40;;
61704;SDS011;47627;48.078;11.522;2024-01-15T02:14:34;28.73;;;15.77;;
61704;SDS011;47627;48.078;11.522;2024-01-15T02:16:59;29.70;;;15.18;;
61704;SDS011;47627;48.078;11.522;2024-01-15T02:19:24;26.08;;;14.40;;
61704;SDS011;47627;48.078;11.522;2024-01-15T02:21:50;23.08;;;13.48;;
61704;SDS011;47627;48.078;11.522;2024-01-15T02:24:15;26.00;;;14.35;;
61704;SDS011;47627;48.078;11.522;2024-01-15T02:26:40;23.60;;;13.77;;
61704;SDS011;47627;48.078;11.522;2024-01-15T02:29:06;23.52;;;13.57;;
61704;SDS011;47627;48.078;11.522;2024-01-15T02:31:33;22.40;;;12.95;;
61704;SDS011;47627;48.078;11.522;2024-01-15T02:33:58;23.52;;;13.70;;
61704;SDS011;47627;48.078;11.522;2024-01-15T02:36:23;21.95;;;12.95;;
61704;SDS011;47627;48.078;11.522;2024-01-15T02:38:48;26.05;;;14.77;;
61704;SDS011;47627;48.078;11.522;2024-01-15T02:41:13;26.17;;;14.50;;
61704;SDS011;47627;48.078;11.522;2024-01-15T02:43:39;24.67;;;14.45;;
61704;SDS011;47627;48.078;11.522;2024-01-15T02:46:04;24.60;;;14.30;;
61704;SDS011;47627;48.078;11.522;2024-01-15T02:48:30;26.88;;;14.75;;
61704;SDS011;47627;48.078;11.522;2024-01-15T02:50:55;24.23;;;13.98;;
61704;SDS011;47627;48.078;11.522;2024-01-15T02:53:20;23.88;;;14.13;;
61704;SDS011;47627;48.078;11.522;2024-01-15T02:55:45;23.25;;;13.85;;
61704;SDS011;47627;48.078;11.522;2024-01-15T02:58:10;24.75;;;13.68;;
61704;SDS011;47627;48.078;11.522;2024-01-15T03:00:36;25.73;;;13.38;;
61704;SDS011;47627;48.078;11.522;2024-01-15T03:03:01;26.25;;;14.77;;
61704;SDS011;47627;48.078;11.522;2024-01-15T03:05:26;24.95;;;13.95;;
61704;SDS011;47627;48.078;11.522;2024-01-15T03:07:51;24.67;;;14.32;;
61704;SDS011;47627;48.078;11.522;2024-01-15T03:10:16;24.90;;;13.68;;
61704;SDS011;47627;48.078;11.522;2024-01-15T03:12:42;22.27;;;12.45;;
61704;SDS011;47627;48.078;11.522;2024-01-15T03:15:07;24.95;;;13.57;;
61704;SDS011;47627;48.078;11.522;2024-01-15T03:17:32;25.27;;;13.85;;
61704;SDS011;47627;48.078;11.522;2024-01-15T03:19:58;24.45;;;12.25;;
61704;SDS011;47627;48.078;11.522;2024-01-15T03:22:23;21.58;;;12.18;;
61704;SDS011;47627;48.078;11.522;2024-01-15T03:24:48;20.17;;;11.13;;
61704;SDS011;47627;48.078;11.522;2024-01-15T03:27:13;18.75;;;11.35;;
61704;SDS011;47627;48.078;11.522;2024-01-15T03:29:39;24.52;;;12.38;;
61704;SDS011;47627;48.078;11.522;2024-01-15T03:32:04;19.63;;;11.35;;
61704;SDS011;47627;48.078;11.522;2024-01-15T03:34:29;23.55;;;12.32;;
61704;SDS011;47627;48.078;11.522;2024-01-15T03:36:55;21.83;;;11.38;;
61704;SDS011;47627;48.078;11.522;2024-01-15T03:39:20;18.60;;;10.57;;
61704;SDS011;47627;48.078;11.522;2024-01-15T03:41:45;19.00;;;11.07;;
61704;SDS011;47627;48.078;11.522;2024-01-15T03:44:10;21.88;;;11.18;;
61704;SDS011;47627;48.078;11.522;2024-01-15T03:46:35;17.27;;;9.52;;
61704;SDS011;47627;48.078;11.522;2024-01-15T03:49:01;17.88;;;10.48;;
61704;SDS011;47627;48.078;11.522;2024-01-15T03:51:26;17.25;;;10.07;;
61704;SDS011;47627;48.078;11.522;2024-01-15T03:53:51;18.67;;;9.82;;
61704;SDS011;47627;48.078;11.522;2024-01-15T03:56:16;18.20;;;10.07;;
61704;SDS011;47627;48.078;11.522;2024-01-15T03:58:42;18.13;;;10.18;;
61704;SDS011;47627;48.078;11.522;2024-01-15T04:01:08;18.30;;;10.30;;
61704;SDS011;47627;48.078;11.522;2024-01-15T04:03:33;17.38;;;10.55;;
61704;SDS011;47627;48.078;11.522;2024-01-15T04:05:59;20.92;;;10.45;;
61704;SDS011;47627;48.078;11.522;2024-01-15T04:08:24;18.33;;;10.60;;
61704;SDS011;47627;48.078;11.522;2024-01-15T04:10:49;21.08;;;11.02;;
61704;SDS011;47627;48.078;11.522;2024-01-15T04:13:14;19.38;;;10.27;;
61704;SDS011;47627;48.078;11.522;2024-01-15T04:15:39;18.67;;;10.45;;
61704;SDS011;47627;48.078;11.522;2024-01-15T04:18:05;21.02;;;10.13;;
61704;SDS011;47627;48.078;11.522;2024-01-15T04:20:30;16.80;;;9.93;;
61704;SDS011;47627;48.078;11.522;2024-01-15T04:22:55;24.80;;;11.68;;
61704;SDS011;47627;48.078;11.522;2024-01-15T04:25:21;20.73;;;9.73;;
61704;SDS011;47627;48.078;11.522;2024-01-15T04:27:46;18.48;;;9.80;;
61704;SDS011;47627;48.078;11.522;2024-01-15T04:30:12;17.88;;;10.60;;
61704;SDS011;47627;48.078;11.522;2024-01-15T04:32:37;16.75;;;9.25;;
61704;SDS011;47627;48.078;11.522;2024-01-15T04:35:02;15.32;;;9.20;;
61704;SDS011;47627;48.078;11.522;2024-01-15T04:37:28;16.20;;;9.40;;
61704;SDS011;47627;48.078;11.522;2024-01-15T04:39:53;15.27;;;9.15;;
61704;SDS011;47627;48.078;11.522;2024-01-15T04:42:20;16.98;;;9.95;;
61704;SDS011;47627;48.078;11.522;2024-01-15T04:44:45;15.10;;;8.68;;
61704;SDS011;47627;48.078;11.522;2024-01-15T04:47:10;15.05;;;8.60;;
61704;SDS011;47627;48.078;11.522;2024-01-15T04:49:36;13.82;;;8.32;;
61704;SDS011;47627;48.078;11.522;2024-01-15T04:52:01;13.63;;;8.00;;
61704;SDS011;47627;48.078;11.522;2024-01-15T04:54:26;15.40;;;8.93;;
61704;SDS011;47627;48.078;11.522;2024-01-15T04:56:52;12.98;;;7.88;;
61704;SDS011;47627;48.078;11.522;2024-01-15T04:59:17;15.15;;;8.77;;
61704;SDS011;47627;48.078;11.522;2024-01-15T05:01:42;14.27;;;7.93;;
61704;SDS011;47627;48.078;11.522;2024-01-15T05:04:07;12.23;;;7.93;;
61704;SDS011;47627;48.078;11.522;2024-01-15T05:06:33;11.93;;;7.50;;
61704;SDS011;47627;48.078;11.522;2024-01-15T05:08:58;14.23;;;7.68;;
61704;SDS011;47627;48.078;11.522;2024-01-15T05:11:24;16.08;;;8.40;;
61704;SDS011;47627;48.078;11.522;2024-01-15T05:13:49;14.32;;;7.63;;
61704;SDS011;47627;48.078;11.522;2024-01-15T05:16:15;16.25;;;8.57;;
61704;SDS011;47627;48.078;11.522;2024-01-15T05:18:40;15.35;;;8.88;;
61704;SDS011;47627;48.078;11.522;2024-01-15T05:21:05;16.67;;;8.93;;
61704;SDS011;47627;48.078;11.522;2024-01-15T05:23:31;12.23;;;7.90;;
61704;SDS011;47627;48.078;11.522;2024-01-15T05:25:56;12.27;;;7.93;;
61704;SDS011;47627;48.078;11.522;2024-01-15T05:28:22;14.57;;;7.57;;
61704;SDS011;47627;48.078;11.522;2024-01-15T05:30:47;13.75;;;7.90;;
61704;SDS011;47627;48.078;11.522;2024-01-15T05:33:13;15.40;;;7.50;;
61704;SDS011;47627;48.078;11.522;2024-01-15T05:35:38;16.33;;;8.40;;
61704;SDS011;47627;48.078;11.522;2024-01-15T05:38:04;13.43;;;7.20;;
61704;SDS011;47627;48.078;11.522;2024-01-15T05:40:29;17.20;;;8.88;;
61704;SDS011;47627;48.078;11.522;2024-01-15T05:42:55;12.63;;;7.30;;
61704;SDS011;47627;48.078;11.522;2024-01-15T05:53:26;16.85;;;8.80;;
61704;SDS011;47627;48.078;11.522;2024-01-15T05:58:43;14.95;;;7.75;;
61704;SDS011;47627;48.078;11.522;2024-01-15T06:01:09;14.50;;;8.63;;
61704;SDS011;47627;48.078;11.522;2024-01-15T06:03:34;13.43;;;8.70;;
61704;SDS011;47627;48.078;11.522;2024-01-15T06:09:01;14.23;;;7.82;;
61704;SDS011;47627;48.078;11.522;2024-01-15T06:11:33;17.40;;;9.07;;
61704;SDS011;47627;48.078;11.522;2024-01-15T06:13:58;15.75;;;9.18;;
61704;SDS011;47627;48.078;11.522;2024-01-15T06:46:59;16.85;;;8.95;;
61704;SDS011;47627;48.078;11.522;2024-01-15T06:49:28;14.00;;;8.15;;
61704;SDS011;47627;48.078;11.522;2024-01-15T06:51:53;14.10;;;8.55;;
61704;SDS011;47627;48.078;11.522;2024-01-15T07:02:24;14.30;;;8.30;;
61704;SDS011;47627;48.078;11.522;2024-01-15T07:04:49;15.13;;;8.98;;
61704;SDS011;47627;48.078;11.522;2024-01-15T07:07:14;18.65;;;9.40;;
61704;SDS011;47627;48.078;11.522;2024-01-15T07:09:40;15.02;;;8.60;;
61704;SDS011;47627;48.078;11.522;2024-01-15T07:12:05;15.65;;;8.43;;
61704;SDS011;47627;48.078;11.522;2024-01-15T07:14:31;16.65;;;9.07;;
61704;SDS011;47627;48.078;11.522;2024-01-15T07:16:56;14.77;;;8.95;;
61704;SDS011;47627;48.078;11.522;2024-01-15T07:19:21;14.65;;;8.90;;
61704;SDS011;47627;48.078;11.522;2024-01-15T07:21:46;14.82;;;8.27;;
61704;SDS011;47627;48.078;11.522;2024-01-15T07:24:12;16.23;;;9.60;;
61704;SDS011;47627;48.078;11.522;2024-01-15T07:26:37;15.27;;;9.52;;
61704;SDS011;47627;48.078;11.522;2024-01-15T07:29:02;16.95;;;9.32;;
61704;SDS011;47627;48.078;11.522;2024-01-15T07:31:28;16.83;;;10.00;;
61704;SDS011;47627;48.078;11.522;2024-01-15T07:33:53;14.55;;;9.07;;
61704;SDS011;47627;48.078;11.522;2024-01-15T07:36:18;15.15;;;8.40;;
61704;SDS011;47627;48.078;11.522;2024-01-15T07:38:44;14.27;;;9.55;;
61704;SDS011;47627;48.078;11.522;2024-01-15T07:41:09;17.20;;;9.55;;
61704;SDS011;47627;48.078;11.522;2024-01-15T07:43:34;15.90;;;9.43;;
61704;SDS011;47627;48.078;11.522;2024-01-15T07:45:59;18.30;;;8.90;;
61704;SDS011;47627;48.078;11.522;2024-01-15T07:48:25;15.30;;;8.75;;
61704;SDS011;47627;48.078;11.522;2024-01-15T07:50:50;15.65;;;8.50;;
61704;SDS011;47627;48.078;11.522;2024-01-15T07:53:15;13.95;;;8.75;;
61704;SDS011;47627;48.078;11.522;2024-01-15T07:58:27;13.98;;;8.38;;
61704;SDS011;47627;48.078;11.522;2024-01-15T08:00:52;16.38;;;8.68;;
61704;SDS011;47627;48.078;11.522;2024-01-15T08:03:18;14.63;;;8.65;;
61704;SDS011;47627;48.078;11.522;2024-01-15T08:05:43;68.63;;;61.28;;
61704;SDS011;47627;48.078;11.522;2024-01-15T08:08:08;28.30;;;15.70;;
61704;SDS011;47627;48.078;11.522;2024-01-15T08:10:34;18.25;;;9.63;;
61704;SDS011;47627;48.078;11.522;2024-01-15T08:12:59;13.40;;;8.70;;
61704;SDS011;47627;48.078;11.522;2024-01-15T09:12:17;18.70;;;10.85;;
61704;SDS011;47627;48.078;11.522;2024-01-15T09:14:49;16.27;;;10.00;;
61704;SDS011;47627;48.078;11.522;2024-01-15T09:17:15;16.60;;;9.60;;
61704;SDS011;47627;48.078;11.522;2024-01-15T09:19:40;16.67;;;9.88;;
61704;SDS011;47627;48.078;11.522;2024-01-15T09:22:06;15.82;;;9.43;;
61704;SDS011;47627;48.078;11.522;2024-01-15T09:24:32;15.23;;;9.32;;
61704;SDS011;47627;48.078;11.522;2024-01-15T09:26:57;14.02;;;9.32;;
61704;SDS011;47627;48.078;11.522;2024-01-15T09:29:22;12.38;;;7.88;;
61704;SDS011;47627;48.078;11.522;2024-01-15T09:31:48;13.45;;;8.20;;
61704;SDS011;47627;48.078;11.522;2024-01-15T09:34:15;15.48;;;8.60;;
61704;SDS011;47627;48.078;11.522;2024-01-15T09:36:40;12.73;;;7.70;;
61704;SDS011;47627;48.078;11.522;2024-01-15T09:39:07;12.10;;;7.13;;
61704;SDS011;47627;48.078;11.522;2024-01-15T09:41:36;12.40;;;8.15;;
61704;SDS011;47627;48.078;11.522;2024-01-15T09:44:02;14.57;;;8.38;;
61704;SDS011;47627;48.078;11.522;2024-01-15T09:46:28;14.27;;;7.97;;
61704;SDS011;47627;48.078;11.522;2024-01-15T09:48:53;13.95;;;7.85;;
61704;SDS011;47627;48.078;11.522;2024-01-15T09:51:19;12.90;;;7.18;;
61704;SDS011;47627;48.078;11.522;2024-01-15T09:53:45;12.55;;;7.40;;
61704;SDS011;47627;48.078;11.522;2024-01-15T10:23:55;8.85;;;5.82;;
61704;SDS011;47627;48.078;11.522;2024-01-15T10:26:24;9.25;;;5.80;;
61704;SDS011;47627;48.078;11.522;2024-01-15T10:28:52;9.32;;;5.90;;
61704;SDS011;47627;48.078;11.522;2024-01-15T10:31:17;8.63;;;5.57;;
61704;SDS011;47627;48.078;11.522;2024-01-15T10:33:44;7.80;;;5.18;;
61704;SDS011;47627;48.078;11.522;2024-01-15T10:36:09;11.52;;;5.80;;
61704;SDS011;47627;48.078;11.522;2024-01-15T10:38:36;10.27;;;6.10;;
61704;SDS011;47627;48.078;11.522;2024-01-15T10:41:01;9.15;;;5.53;;
61704;SDS011;47627;48.078;11.522;2024-01-15T10:43:27;8.55;;;5.30;;
61704;SDS011;47627;48.078;11.522;2024-01-15T10:48:51;7.47;;;4.97;;
61704;SDS011;47627;48.078;11.522;2024-01-15T10:51:16;8.55;;;5.60;;
61704;SDS011;47627;48.078;11.522;2024-01-15T10:53:42;10.20;;;5.18;;
61704;SDS011;47627;48.078;11.522;2024-01-15T10:56:08;7.88;;;5.22;;
61704;SDS011;47627;48.078;11.522;2024-01-15T10:58:35;6.68;;;4.60;;
61704;SDS011;47627;48.078;11.522;2024-01-15T11:01:02;7.53;;;5.10;;
61704;SDS011;47627;48.078;11.522;2024-01-15T11:03:27;8.77;;;4.80;;
61704;SDS011;47627;48.078;11.522;2024-01-15T11:11:16;6.88;;;4.53;;
61704;SDS011;47627;48.078;11.522;2024-01-15T11:13:42;7.75;;;5.10;;
61704;SDS011;47627;48.078;11.522;2024-01-15T11:16:14;8.07;;;4.25;;
61704;SDS011;47627;48.078;11.522;2024-01-15T11:18:43;7.72;;;4.10;;
61704;SDS011;47627;48.078;11.522;2024-01-15T11:21:26;6.07;;;3.70;;
61704;SDS011;47627;48.078;11.522;2024-01-15T11:29:06;6.25;;;3.35;;
61704;SDS011;47627;48.078;11.522;2024-01-15T11:34:06;4.88;;;3.42;;
61704;SDS011;47627;48.078;11.522;2024-01-15T11:41:56;5.53;;;3.50;;
61704;SDS011;47627;48.078;11.522;2024-01-15T11:44:22;5.40;;;3.50;;
61704;SDS011;47627;48.078;11.522;2024-01-15T11:46:58;5.38;;;3.30;;
61704;SDS011;47627;48.078;11.522;2024-01-15T11:52:07;6.90;;;3.70;;
61704;SDS011;47627;48.078;11.522;2024-01-15T11:54:36;7.15;;;3.55;;
61704;SDS011;47627;48.078;11.522;2024-01-15T11:57:03;5.40;;;3.47;;
61704;SDS011;47627;48.078;11.522;2024-01-15T11:59:29;6.13;;;3.78;;
61704;SDS011;47627;48.078;11.522;2024-01-15T12:01:54;4.88;;;3.28;;
61704;SDS011;47627;48.078;11.522;2024-01-15T12:04:20;5.78;;;3.30;;
61704;SDS011;47627;48.078;11.522;2024-01-15T12:06:45;6.40;;;4.07;;
61704;SDS011;47627;48.078;11.522;2024-01-15T12:09:11;5.72;;;3.72;;
61704;SDS011;47627;48.078;11.522;2024-01-15T12:11:36;5.25;;;3.63;;
61704;SDS011;47627;48.078;11.522;2024-01-15T12:14:03;7.82;;;3.45;;
61704;SDS011;47627;48.078;11.522;2024-01-15T12:27:44;5.88;;;3.25;;
61704;SDS011;47627;48.078;11.522;2024-01-15T12:30:12;5.38;;;3.65;;
61704;SDS011;47627;48.078;11.522;2024-01-15T12:32:38;6.50;;;3.60;;
61704;SDS011;47627;48.078;11.522;2024-01-15T12:35:04;4.18;;;3.08;;
61704;SDS011;47627;48.078;11.522;2024-01-15T12:37:29;4.45;;;3.50;;
61704;SDS011;47627;48.078;11.522;2024-01-15T12:39:55;4.07;;;3.10;;
61704;SDS011;47627;48.078;11.522;2024-01-15T12:42:20;5.15;;;3.50;;
61704;SDS011;47627;48.078;11.522;2024-01-15T12:44:46;6.70;;;3.30;;
61704;SDS011;47627;48.078;11.522;2024-01-15T12:47:11;6.80;;;3.88;;
61704;SDS011;47627;48.078;11.522;2024-01-15T12:49:37;5.15;;;3.00;;
61704;SDS011;47627;48.078;11.522;2024-01-15T12:52:02;5.25;;;3.30;;
61704;SDS011;47627;48.078;11.522;2024-01-15T12:54:28;3.88;;;3.00;;
61704;SDS011;47627;48.078;11.522;2024-01-15T12:56:53;4.57;;;2.83;;
61704;SDS011;47627;48.078;11.522;2024-01-15T13:02:46;5.22;;;3.63;;
61704;SDS011;47627;48.078;11.522;2024-01-15T13:05:12;7.05;;;4.28;;
61704;SDS011;47627;48.078;11.522;2024-01-15T13:07:37;8.70;;;4.30;;
61704;SDS011;47627;48.078;11.522;2024-01-15T13:10:02;7.68;;;4.70;;
61704;SDS011;47627;48.078;11.522;2024-01-15T13:12:28;6.97;;;4.00;;
61704;SDS011;47627;48.078;11.522;2024-01-15T13:14:53;5.90;;;4.10;;
61704;SDS011;47627;48.078;11.522;2024-01-15T13:17:18;7.10;;;4.43;;
61704;SDS011;47627;48.078;11.522;2024-01-15T13:19:45;6.78;;;4.25;;
61704;SDS011;47627;48.078;11.522;2024-01-15T13:36:30;7.97;;;4.60;;
61704;SDS011;47627;48.078;11.522;2024-01-15T13:38:55;6.75;;;4.50;;
61704;SDS011;47627;48.078;11.522;2024-01-15T13:41:21;7.72;;;5.03;;
61704;SDS011;47627;48.078;11.522;2024-01-15T13:43:55;8.70;;;4.85;;
61704;SDS011;47627;48.078;11.522;2024-01-15T13:46:23;7.38;;;4.18;;
61704;SDS011;47627;48.078;11.522;2024-01-15T13:48:49;6.28;;;4.47;;
61704;SDS011;47627;48.078;11.522;2024-01-15T13:51:14;6.78;;;4.43;;
61704;SDS011;47627;48.078;11.522;2024-01-15T13:53:39;5.80;;;4.25;;
61704;SDS011;47627;48.078;11.522;2024-01-15T14:24:28;7.03;;;5.15;;
61704;SDS011;47627;48.078;11.522;2024-01-15T14:26:53;7.63;;;4.75;;
61704;SDS011;47627;48.078;11.522;2024-01-15T14:29:18;8.77;;;4.55;;
61704;SDS011;47627;48.078;11.522;2024-01-15T14:31:46;7.82;;;4.50;;
61704;SDS011;47627;48.078;11.522;2024-01-15T14:39:50;6.50;;;4.03;;
61704;SDS011;47627;48.078;11.522;2024-01-15T14:42:22;5.22;;;3.92;;
61704;SDS011;47627;48.078;11.522;2024-01-15T14:44:49;6.47;;;4.30;;
61704;SDS011;47627;48.078;11.522;2024-01-15T14:47:14;7.30;;;4.72;;
61704;SDS011;47627;48.078;11.522;2024-01-15T14:49:39;5.28;;;4.07;;
61704;SDS011;47627;48.078;11.522;2024-01-15T14:52:05;8.02;;;4.68;;
61704;SDS011;47627;48.078;11.522;2024-01-15T14:54:31;8.25;;;5.03;;
61704;SDS011;47627;48.078;11.522;2024-01-15T14:56:56;6.20;;;4.53;;
61704;SDS011;47627;48.078;11.522;2024-01-15T14:59:22;6.40;;;4.55;;
61704;SDS011;47627;48.078;11.522;2024-01-15T15:01:47;7.57;;;4.43;;
61704;SDS011;47627;48.078;11.522;2024-01-15T15:07:02;4.97;;;3.92;;
61704;SDS011;47627;48.078;11.522;2024-01-15T15:09:28;5.43;;;3.88;;
61704;SDS011;47627;48.078;11.522;2024-01-15T15:11:53;7.80;;;4.50;;
61704;SDS011;47627;48.078;11.522;2024-01-15T15:17:00;6.53;;;4.40;;
61704;SDS011;47627;48.078;11.522;2024-01-15T15:19:26;6.13;;;3.80;;
61704;SDS011;47627;48.078;11.522;2024-01-15T15:21:51;8.18;;;4.38;;
61704;SDS011;47627;48.078;11.522;2024-01-15T15:24:16;4.70;;;3.90;;
61704;SDS011;47627;48.078;11.522;2024-01-15T15:26:41;8.82;;;4.80;;
61704;SDS011;47627;48.078;11.522;2024-01-15T15:29:07;7.18;;;4.45;;
61704;SDS011;47627;48.078;11.522;2024-01-15T15:31:32;6.05;;;3.92;;
61704;SDS011;47627;48.078;11.522;2024-01-15T15:33:57;6.68;;;4.03;;
61704;SDS011;47627;48.078;11.522;2024-01-15T15:36:23;6.25;;;4.53;;
61704;SDS011;47627;48.078;11.522;2024-01-15T15:38:48;8.23;;;4.53;;
61704;SDS011;47627;48.078;11.522;2024-01-15T15:41:14;5.72;;;4.35;;
61704;SDS011;47627;48.078;11.522;2024-01-15T15:43:39;8.38;;;4.65;;
61704;SDS011;47627;48.078;11.522;2024-01-15T15:46:38;6.55;;;4.97;;
61704;SDS011;47627;48.078;11.522;2024-01-15T15:48:56;8.52;;;5.35;;
61704;SDS011;47627;48.078;11.522;2024-01-15T15:51:21;8.25;;;5.22;;
61704;SDS011;47627;48.078;11.522;2024-01-15T15:53:47;7.60;;;4.97;;
61704;SDS011;47627;48.078;11.522;2024-01-15T15:56:12;7.68;;;5.28;;
61704;SDS011;47627;48.078;11.522;2024-01-15T15:58:38;9.00;;;5.50;;
61704;SDS011;47627;48.078;11.522;2024-01-15T16:01:03;8.15;;;5.97;;
61704;SDS011;47627;48.078;11.522;2024-01-15T16:03:28;8.02;;;4.85;;
61704;SDS011;47627;48.078;11.522;2024-01-15T16:05:54;9.73;;;5.47;;
61704;SDS011;47627;48.078;11.522;2024-01-15T16:08:19;7.72;;;5.18;;
61704;SDS011;47627;48.078;11.522;2024-01-15T16:10:45;8.77;;;5.68;;
61704;SDS011;47627;48.078;11.522;2024-01-15T16:13:11;7.22;;;5.30;;
61704;SDS011;47627;48.078;11.522;2024-01-15T16:15:37;8.07;;;5.57;;
61704;SDS011;47627;48.078;11.522;2024-01-15T16:18:53;9.73;;;6.32;;
61704;SDS011;47627;48.078;11.522;2024-01-15T16:21:18;9.90;;;6.03;;
61704;SDS011;47627;48.078;11.522;2024-01-15T16:23:44;9.35;;;6.22;;
61704;SDS011;47627;48.078;11.522;2024-01-15T16:26:09;11.50;;;7.03;;
61704;SDS011;47627;48.078;11.522;2024-01-15T16:28:34;12.43;;;7.47;;
61704;SDS011;47627;48.078;11.522;2024-01-15T16:30:59;12.82;;;7.43;;
61704;SDS011;47627;48.078;11.522;2024-01-15T16:33:25;11.15;;;6.90;;
61704;SDS011;47627;48.078;11.522;2024-01-15T16:35:50;11.38;;;7.63;;
61704;SDS011;47627;48.078;11.522;2024-01-15T16:38:15;12.52;;;6.93;;
61704;SDS011;47627;48.078;11.522;2024-01-15T16:40:41;10.82;;;7.22;;
61704;SDS011;47627;48.078;11.522;2024-01-15T16:43:06;14.13;;;8.43;;
61704;SDS011;47627;48.078;11.522;2024-01-15T16:45:34;14.85;;;7.57;;
61704;SDS011;47627;48.078;11.522;2024-01-15T16:48:00;12.48;;;8.18;;
61704;SDS011;47627;48.078;11.522;2024-01-15T16:50:26;14.40;;;8.38;;
61704;SDS011;47627;48.078;11.522;2024-01-15T16:52:51;12.60;;;8.18;;
61704;SDS011;47627;48.078;11.522;2024-01-15T16:57:55;15.02;;;9.35;;
61704;SDS011;47627;48.078;11.522;2024-01-15T17:00:20;13.13;;;8.60;;
61704;SDS011;47627;48.078;11.522;2024-01-15T17:02:46;17.10;;;10.35;;
61704;SDS011;47627;48.078;11.522;2024-01-15T17:10:59;15.65;;;9.15;;
61704;SDS011;47627;48.078;11.522;2024-01-15T17:13:24;17.92;;;11.50;;
61704;SDS011;47627;48.078;11.522;2024-01-15T17:18:31;25.38;;;12.02;;
61704;SDS011;47627;48.078;11.522;2024-01-15T17:20:57;21.13;;;12.20;;
61704;SDS011;47627;48.078;11.522;2024-01-15T17:23:22;20.70;;;11.90;;
61704;SDS011;47627;48.078;11.522;2024-01-15T17:25:48;17.40;;;11.75;;
61704;SDS011;47627;48.078;11.522;2024-01-15T17:28:13;20.15;;;12.07;;
61704;SDS011;47627;48.078;11.522;2024-01-15T17:30:38;16.48;;;11.00;;
61704;SDS011;47627;48.078;11.522;2024-01-15T17:33:04;15.55;;;10.57;;
61704;SDS011;47627;48.078;11.522;2024-01-15T17:35:29;21.20;;;13.18;;
61704;SDS011;47627;48.078;11.522;2024-01-15T17:37:54;18.92;;;11.85;;
61704;SDS011;47627;48.078;11.522;2024-01-15T17:40:19;24.10;;;14.32;;
61704;SDS011;47627;48.078;11.522;2024-01-15T17:42:45;18.50;;;12.57;;
61704;SDS011;47627;48.078;11.522;2024-01-15T17:45:12;25.67;;;13.50;;
61704;SDS011;47627;48.078;11.522;2024-01-15T17:47:37;21.00;;;12.98;;
61704;SDS011;47627;48.078;11.522;2024-01-15T17:50:02;23.52;;;12.85;;
61704;SDS011;47627;48.078;11.522;2024-01-15T17:52:28;23.17;;;13.32;;
61704;SDS011;47627;48.078;11.522;2024-01-15T17:54:53;19.27;;;11.25;;
61704;SDS011;47627;48.078;11.522;2024-01-15T17:57:19;15.15;;;10.35;;
61704;SDS011;47627;48.078;11.522;2024-01-15T17:59:44;12.88;;;6.65;;
61704;SDS011;47627;48.078;11.522;2024-01-15T18:02:09;8.10;;;6.10;;
61704;SDS011;47627;48.078;11.522;2024-01-15T18:04:35;6.53;;;4.70;;
61704;SDS011;47627;48.078;11.522;2024-01-15T18:07:03;8.00;;;5.43;;
61704;SDS011;47627;48.078;11.522;2024-01-15T18:09:28;7.93;;;4.60;;
61704;SDS011;47627;48.078;11.522;2024-01-15T18:11:53;6.80;;;4.53;;
61704;SDS011;47627;48.078;11.522;2024-01-15T18:14:23;7.25;;;4.97;;
61704;SDS011;47627;48.078;11.522;2024-01-15T18:16:49;7.80;;;5.18;;